createdAt,value
2017-03-31T00:00:25.792Z,0
2017-03-31T00:01:06.211Z,0
2017-03-31T00:01:46.637Z,0
2017-03-31T00:02:26.989Z,0
2017-03-31T00:03:07.461Z,0
2017-03-31T00:03:49.118Z,0
2017-03-31T00:04:29.495Z,0
2017-03-31T00:05:10.398Z,0
2017-03-31T00:05:50.782Z,0
2017-03-31T00:06:34.133Z,0
2017-03-31T00:07:14.526Z,0
2017-03-31T00:07:55.719Z,0
2017-03-31T00:08:36.148Z,0
2017-03-31T00:09:16.567Z,0
2017-03-31T00:09:56.988Z,0
2017-03-31T00:10:37.406Z,0
2017-03-31T00:11:17.761Z,0
2017-03-31T00:11:58.231Z,0
2017-03-31T00:12:38.585Z,0
2017-03-31T00:13:18.987Z,0
2017-03-31T00:13:59.384Z,0
2017-03-31T00:14:39.779Z,0
2017-03-31T00:15:20.188Z,0
2017-03-31T00:16:00.626Z,0
2017-03-31T00:16:41.059Z,0
2017-03-31T00:17:21.482Z,0
2017-03-31T00:18:01.872Z,0
2017-03-31T00:18:42.307Z,0
2017-03-31T00:19:22.701Z,0
2017-03-31T00:20:03.179Z,0
2017-03-31T00:20:43.557Z,0
2017-03-31T00:21:23.995Z,0
2017-03-31T00:22:04.416Z,0
2017-03-31T00:22:44.839Z,0
2017-03-31T00:23:25.205Z,0
2017-03-31T00:24:05.659Z,0
2017-03-31T00:24:46.058Z,0
2017-03-31T00:25:26.491Z,0
2017-03-31T00:26:06.875Z,0
2017-03-31T00:26:47.367Z,0
2017-03-31T00:27:27.724Z,0
2017-03-31T00:28:08.167Z,0
2017-03-31T00:28:48.527Z,0
2017-03-31T00:29:28.989Z,0
2017-03-31T00:30:09.419Z,0
2017-03-31T00:30:49.783Z,0
2017-03-31T00:31:30.220Z,0
2017-03-31T00:32:10.636Z,0
2017-03-31T00:32:51.028Z,0
2017-03-31T00:33:31.393Z,0
2017-03-31T00:34:11.872Z,0
2017-03-31T00:34:52.280Z,0
2017-03-31T00:35:32.691Z,0
2017-03-31T00:36:13.127Z,0
2017-03-31T00:36:53.494Z,0
2017-03-31T00:37:33.865Z,0
2017-03-31T00:38:14.256Z,0
2017-03-31T00:38:54.663Z,0
2017-03-31T00:39:35.144Z,0
2017-03-31T00:40:15.459Z,0
2017-03-31T00:40:55.894Z,0
2017-03-31T00:41:36.333Z,0
2017-03-31T00:42:16.735Z,0
2017-03-31T00:42:57.125Z,0
2017-03-31T00:43:37.536Z,0
2017-03-31T00:44:17.920Z,0
2017-03-31T00:44:58.358Z,0
2017-03-31T00:45:38.736Z,0
2017-03-31T00:46:19.159Z,0
2017-03-31T00:46:59.529Z,0
2017-03-31T00:47:39.952Z,0
2017-03-31T00:48:20.399Z,0
2017-03-31T00:49:00.801Z,0
2017-03-31T00:49:41.173Z,0
2017-03-31T00:50:21.597Z,0
2017-03-31T00:51:01.993Z,0
2017-03-31T00:51:42.449Z,0
2017-03-31T00:52:22.826Z,0
2017-03-31T00:53:03.307Z,0
2017-03-31T00:53:43.666Z,0
2017-03-31T00:54:24.089Z,0
2017-03-31T00:55:04.504Z,0
2017-03-31T00:55:44.905Z,0
2017-03-31T00:56:25.432Z,0
2017-03-31T00:57:05.786Z,0
2017-03-31T00:57:46.190Z,0
2017-03-31T00:58:26.622Z,0
2017-03-31T00:59:06.985Z,0
2017-03-31T00:59:47.411Z,0
2017-03-31T01:00:27.807Z,0
2017-03-31T01:01:08.215Z,0
2017-03-31T01:01:48.637Z,0
2017-03-31T01:02:29.022Z,0
2017-03-31T01:03:09.408Z,0
2017-03-31T01:03:49.820Z,0
2017-03-31T01:04:30.199Z,0
2017-03-31T01:05:10.584Z,0
2017-03-31T01:05:51.061Z,0
2017-03-31T01:06:31.484Z,0
2017-03-31T01:07:11.895Z,0
2017-03-31T01:07:52.284Z,0
2017-03-31T01:08:32.685Z,0
2017-03-31T01:09:13.145Z,0
2017-03-31T01:09:53.531Z,0
2017-03-31T01:10:33.909Z,0
2017-03-31T01:11:14.305Z,0
2017-03-31T01:11:54.716Z,0
2017-03-31T01:12:35.128Z,0
2017-03-31T01:13:15.559Z,0
2017-03-31T01:13:55.961Z,0
2017-03-31T01:14:36.426Z,0
2017-03-31T01:15:16.758Z,0
2017-03-31T01:15:57.167Z,0
2017-03-31T01:16:37.617Z,0
2017-03-31T01:17:18.005Z,0
2017-03-31T01:17:58.401Z,0
2017-03-31T01:18:38.795Z,0
2017-03-31T01:19:19.195Z,0
2017-03-31T01:19:59.655Z,0
2017-03-31T01:20:39.994Z,0
2017-03-31T01:21:20.430Z,0
2017-03-31T01:22:00.826Z,0
2017-03-31T01:22:41.280Z,0
2017-03-31T01:23:21.743Z,0
2017-03-31T01:24:02.163Z,0
2017-03-31T01:24:42.532Z,0
2017-03-31T01:25:22.959Z,0
2017-03-31T01:26:03.415Z,0
2017-03-31T01:26:43.777Z,0
2017-03-31T01:27:24.212Z,0
2017-03-31T01:28:04.596Z,0
2017-03-31T01:28:44.965Z,0
2017-03-31T01:29:25.382Z,0
2017-03-31T01:30:05.815Z,0
2017-03-31T01:30:46.238Z,0
2017-03-31T01:31:26.651Z,0
2017-03-31T01:32:07.093Z,0
2017-03-31T01:32:47.451Z,0
2017-03-31T01:33:27.896Z,0
2017-03-31T01:34:08.319Z,0
2017-03-31T01:34:48.731Z,0
2017-03-31T01:35:29.137Z,0
2017-03-31T01:36:09.572Z,0
2017-03-31T01:36:49.986Z,0
2017-03-31T01:37:30.405Z,0
2017-03-31T01:38:10.817Z,0
2017-03-31T01:38:51.178Z,0
2017-03-31T01:39:31.616Z,0
2017-03-31T01:40:12.041Z,0
2017-03-31T01:40:52.452Z,0
2017-03-31T01:41:32.853Z,0
2017-03-31T01:42:13.310Z,0
2017-03-31T01:42:53.680Z,0
2017-03-31T01:43:34.103Z,0
2017-03-31T01:44:14.496Z,0
2017-03-31T01:44:54.941Z,0
2017-03-31T01:45:35.332Z,0
2017-03-31T01:46:15.739Z,0
2017-03-31T01:46:56.118Z,0
2017-03-31T01:47:36.558Z,0
2017-03-31T01:48:16.990Z,0
2017-03-31T01:48:57.424Z,0
2017-03-31T01:49:37.799Z,0
2017-03-31T01:50:18.215Z,0
2017-03-31T01:50:58.653Z,0
2017-03-31T01:51:39.091Z,0
2017-03-31T01:52:19.486Z,0
2017-03-31T01:52:59.911Z,0
2017-03-31T01:53:40.867Z,0
2017-03-31T01:54:21.294Z,0
2017-03-31T01:55:01.716Z,0
2017-03-31T01:55:42.129Z,0
2017-03-31T01:56:22.527Z,0
2017-03-31T01:57:02.916Z,0
2017-03-31T01:57:43.373Z,0
2017-03-31T01:58:23.814Z,0
2017-03-31T01:59:04.207Z,0
2017-03-31T01:59:44.609Z,0
2017-03-31T02:00:24.996Z,0
2017-03-31T02:01:05.424Z,0
2017-03-31T02:01:45.866Z,0
2017-03-31T02:02:26.289Z,0
2017-03-31T02:03:06.707Z,0
2017-03-31T02:03:47.083Z,0
2017-03-31T02:04:27.511Z,0
2017-03-31T02:05:07.970Z,0
2017-03-31T02:05:48.338Z,0
2017-03-31T02:06:28.774Z,0
2017-03-31T02:07:09.159Z,0
2017-03-31T02:07:49.609Z,0
2017-03-31T02:08:30.039Z,0
2017-03-31T02:09:10.545Z,0
2017-03-31T02:09:50.942Z,0
2017-03-31T02:10:31.348Z,0
2017-03-31T02:11:11.781Z,0
2017-03-31T02:11:52.195Z,0
2017-03-31T02:12:32.642Z,0
2017-03-31T02:13:13.026Z,0
2017-03-31T02:13:53.480Z,0
2017-03-31T02:14:33.872Z,0
2017-03-31T02:15:14.207Z,0
2017-03-31T02:15:54.703Z,0
2017-03-31T02:16:35.095Z,0
2017-03-31T02:17:15.660Z,0
2017-03-31T02:17:55.969Z,0
2017-03-31T02:18:36.383Z,0
2017-03-31T02:19:16.783Z,0
2017-03-31T02:19:57.206Z,0
2017-03-31T02:20:37.611Z,0
2017-03-31T02:21:18.021Z,0
2017-03-31T02:21:58.444Z,0
2017-03-31T02:22:38.879Z,0
2017-03-31T02:23:19.280Z,0
2017-03-31T02:23:59.756Z,0
2017-03-31T02:24:40.207Z,0
2017-03-31T02:25:20.530Z,0
2017-03-31T02:26:00.984Z,0
2017-03-31T02:26:41.392Z,0
2017-03-31T02:27:21.773Z,0
2017-03-31T02:28:02.140Z,0
2017-03-31T02:28:42.608Z,0
2017-03-31T02:29:23.001Z,0
2017-03-31T02:30:03.370Z,0
2017-03-31T02:30:43.807Z,0
2017-03-31T02:31:24.201Z,0
2017-03-31T02:32:04.633Z,0
2017-03-31T02:32:44.994Z,0
2017-03-31T02:33:25.434Z,0
2017-03-31T02:34:05.866Z,0
2017-03-31T02:34:46.255Z,0
2017-03-31T02:35:26.633Z,0
2017-03-31T02:36:07.053Z,0
2017-03-31T02:36:47.459Z,0
2017-03-31T02:37:27.960Z,0
2017-03-31T02:38:08.342Z,0
2017-03-31T02:38:48.762Z,0
2017-03-31T02:39:29.155Z,0
2017-03-31T02:40:09.559Z,0
2017-03-31T02:40:49.988Z,0
2017-03-31T02:41:30.427Z,0
2017-03-31T02:42:10.825Z,0
2017-03-31T02:42:51.302Z,0
2017-03-31T02:43:31.701Z,0
2017-03-31T02:44:12.094Z,0
2017-03-31T02:44:52.498Z,0
2017-03-31T02:45:32.894Z,0
2017-03-31T02:46:13.338Z,0
2017-03-31T02:46:53.752Z,0
2017-03-31T02:47:34.147Z,0
2017-03-31T02:48:14.550Z,0
2017-03-31T02:48:54.934Z,0
2017-03-31T02:49:35.381Z,0
2017-03-31T02:50:15.821Z,0
2017-03-31T02:50:56.212Z,0
2017-03-31T02:51:36.621Z,0
2017-03-31T02:52:17.068Z,0
2017-03-31T02:52:57.426Z,0
2017-03-31T02:53:37.887Z,0
2017-03-31T02:54:18.235Z,0
2017-03-31T02:54:58.653Z,0
2017-03-31T02:55:39.145Z,0
2017-03-31T02:56:19.616Z,0
2017-03-31T02:56:59.995Z,0
2017-03-31T02:57:40.469Z,0
2017-03-31T02:58:20.894Z,0
2017-03-31T02:59:01.305Z,0
2017-03-31T02:59:41.716Z,0
2017-03-31T03:00:22.156Z,0
2017-03-31T03:01:02.554Z,0
2017-03-31T03:01:42.956Z,0
2017-03-31T03:02:23.401Z,0
2017-03-31T03:03:03.840Z,0
2017-03-31T03:03:44.284Z,0
2017-03-31T03:04:24.691Z,0
2017-03-31T03:05:05.070Z,0
2017-03-31T03:05:45.473Z,0
2017-03-31T03:06:25.891Z,0
2017-03-31T03:07:06.321Z,0
2017-03-31T03:07:46.731Z,0
2017-03-31T03:08:27.145Z,0
2017-03-31T03:09:07.574Z,0
2017-03-31T03:09:47.999Z,0
2017-03-31T03:10:28.412Z,0
2017-03-31T03:11:08.808Z,0
2017-03-31T03:11:49.191Z,0
2017-03-31T03:12:29.586Z,0
2017-03-31T03:13:10.049Z,0
2017-03-31T03:13:52.071Z,0
2017-03-31T03:14:32.532Z,0
2017-03-31T03:15:13.015Z,0
2017-03-31T03:15:53.379Z,0
2017-03-31T03:16:33.804Z,0
2017-03-31T03:17:14.187Z,0
2017-03-31T03:17:54.576Z,0
2017-03-31T03:18:34.975Z,0
2017-03-31T03:19:15.423Z,0
2017-03-31T03:19:55.862Z,0
2017-03-31T03:20:36.256Z,0
2017-03-31T03:21:16.698Z,0
2017-03-31T03:21:57.077Z,0
2017-03-31T03:22:37.537Z,0
2017-03-31T03:23:17.905Z,0
2017-03-31T03:23:58.318Z,0
2017-03-31T03:24:38.746Z,0
2017-03-31T03:25:19.156Z,0
2017-03-31T03:25:59.583Z,0
2017-03-31T03:26:39.956Z,0
2017-03-31T03:27:20.442Z,0
2017-03-31T03:28:00.984Z,0
2017-03-31T03:28:41.337Z,0
2017-03-31T03:29:21.865Z,0
2017-03-31T03:30:02.280Z,0
2017-03-31T03:30:42.678Z,0
2017-03-31T03:31:24.558Z,0
2017-03-31T03:32:05.076Z,0
2017-03-31T03:32:47.578Z,0
2017-03-31T03:33:27.991Z,0
2017-03-31T03:34:10.509Z,0
2017-03-31T03:34:53.399Z,0
2017-03-31T03:35:36.341Z,0
2017-03-31T03:36:16.863Z,0
2017-03-31T03:36:57.871Z,0
2017-03-31T03:37:38.460Z,0
2017-03-31T03:38:21.576Z,0
2017-03-31T03:39:06.181Z,0
2017-03-31T03:39:46.677Z,0
2017-03-31T03:40:27.096Z,0
2017-03-31T03:41:07.496Z,0
2017-03-31T03:41:47.936Z,0
2017-03-31T03:42:28.393Z,0
2017-03-31T03:43:08.843Z,0
2017-03-31T03:43:49.211Z,0
2017-03-31T03:44:29.670Z,0
2017-03-31T03:45:10.044Z,0
2017-03-31T03:45:50.485Z,0
2017-03-31T03:46:30.913Z,0
2017-03-31T03:47:11.362Z,0
2017-03-31T03:47:51.806Z,0
2017-03-31T03:48:32.226Z,0
2017-03-31T03:49:12.625Z,0
2017-03-31T03:49:53.021Z,0
2017-03-31T03:50:33.417Z,0
2017-03-31T03:51:13.845Z,0
2017-03-31T03:51:54.213Z,0
2017-03-31T03:52:34.641Z,0
2017-03-31T03:53:15.042Z,0
2017-03-31T03:53:56.203Z,0
2017-03-31T03:54:36.615Z,0
2017-03-31T03:55:17.055Z,0
2017-03-31T03:55:57.493Z,0
2017-03-31T03:56:37.821Z,0
2017-03-31T03:57:18.284Z,0
2017-03-31T03:57:58.688Z,0
2017-03-31T03:58:39.137Z,0
2017-03-31T03:59:19.519Z,0
2017-03-31T03:59:59.925Z,0
2017-03-31T04:00:40.311Z,0
2017-03-31T04:01:20.742Z,0
2017-03-31T04:02:01.153Z,0
2017-03-31T04:02:41.590Z,0
2017-03-31T04:03:22.087Z,0
2017-03-31T04:04:02.481Z,0
2017-03-31T04:04:42.879Z,0
2017-03-31T04:05:23.349Z,0
2017-03-31T04:06:03.767Z,0
2017-03-31T04:06:44.152Z,0
2017-03-31T04:07:24.543Z,0
2017-03-31T04:08:05.027Z,0
2017-03-31T04:08:46.168Z,0
2017-03-31T04:09:26.556Z,0
2017-03-31T04:10:07.001Z,0
2017-03-31T04:10:47.368Z,0
2017-03-31T04:11:27.820Z,0
2017-03-31T04:12:08.249Z,0
2017-03-31T04:12:48.631Z,0
2017-03-31T04:13:29.032Z,0
2017-03-31T04:14:09.445Z,0
2017-03-31T04:14:49.905Z,0
2017-03-31T04:15:30.300Z,0
2017-03-31T04:16:10.702Z,0
2017-03-31T04:16:51.101Z,0
2017-03-31T04:17:31.526Z,0
2017-03-31T04:18:11.908Z,0
2017-03-31T04:18:52.349Z,0
2017-03-31T04:19:32.734Z,0
2017-03-31T04:20:13.179Z,0
2017-03-31T04:20:53.544Z,0
2017-03-31T04:21:33.988Z,0
2017-03-31T04:22:14.409Z,0
2017-03-31T04:22:54.859Z,0
2017-03-31T04:23:35.219Z,0
2017-03-31T04:24:15.623Z,0
2017-03-31T04:24:56.029Z,0
2017-03-31T04:25:36.473Z,0
2017-03-31T04:26:16.832Z,0
2017-03-31T04:26:57.264Z,0
2017-03-31T04:27:37.694Z,0
2017-03-31T04:28:18.062Z,0
2017-03-31T04:28:58.560Z,0
2017-03-31T04:29:38.953Z,0
2017-03-31T04:30:19.322Z,0
2017-03-31T04:30:59.739Z,0
2017-03-31T04:31:41.176Z,0
2017-03-31T04:32:21.590Z,0
2017-03-31T04:33:02.673Z,0
2017-03-31T04:33:43.486Z,0
2017-03-31T04:34:24.290Z,4
2017-03-31T04:35:05.562Z,4
2017-03-31T04:35:47.752Z,4
2017-03-31T04:36:28.185Z,4
2017-03-31T04:37:09.593Z,0
2017-03-31T04:37:49.952Z,4
2017-03-31T04:38:30.383Z,4
2017-03-31T04:39:10.901Z,8
2017-03-31T04:39:51.270Z,4
2017-03-31T04:40:31.649Z,8
2017-03-31T04:41:12.038Z,8
2017-03-31T04:41:52.438Z,8
2017-03-31T04:42:32.882Z,8
2017-03-31T04:43:13.310Z,12
2017-03-31T04:43:53.697Z,12
2017-03-31T04:44:34.120Z,12
2017-03-31T04:45:14.597Z,12
2017-03-31T04:45:54.990Z,16
2017-03-31T04:46:35.400Z,16
2017-03-31T04:47:16.384Z,20
2017-03-31T04:47:56.837Z,24
2017-03-31T04:48:37.195Z,24
2017-03-31T04:49:17.631Z,28
2017-03-31T04:49:58.040Z,32
2017-03-31T04:50:38.435Z,32
2017-03-31T04:51:18.794Z,40
2017-03-31T04:51:59.193Z,40
2017-03-31T04:52:39.664Z,44
2017-03-31T04:53:20.071Z,48
2017-03-31T04:54:00.478Z,56
2017-03-31T04:54:40.896Z,64
2017-03-31T04:55:21.283Z,68
2017-03-31T04:56:01.746Z,72
2017-03-31T04:56:42.121Z,80
2017-03-31T04:57:22.580Z,88
2017-03-31T04:58:03.002Z,96
2017-03-31T04:58:43.782Z,100
2017-03-31T04:59:25.583Z,112
2017-03-31T05:00:09.058Z,120
2017-03-31T05:00:51.505Z,136
2017-03-31T05:06:49.467Z,256
2017-03-31T05:07:37.715Z,276
2017-03-31T05:08:26.222Z,296
2017-03-31T05:09:12.615Z,320
2017-03-31T05:10:01.370Z,340
2017-03-31T05:10:50.129Z,364
2017-03-31T05:11:38.673Z,388
2017-03-31T05:12:27.301Z,408
2017-03-31T05:13:15.695Z,432
2017-03-31T05:13:58.665Z,456
2017-03-31T05:14:39.068Z,476
2017-03-31T05:17:13.990Z,556
2017-03-31T05:18:02.614Z,580
2017-03-31T05:18:51.282Z,604
2017-03-31T05:19:39.679Z,620
2017-03-31T05:20:28.015Z,644
2017-03-31T05:21:14.477Z,660
2017-03-31T05:22:02.991Z,684
2017-03-31T05:22:51.472Z,704
2017-03-31T05:23:40.238Z,728
2017-03-31T05:24:28.358Z,752
2017-03-31T05:25:16.950Z,780
2017-03-31T05:25:58.391Z,808
2017-03-31T05:26:38.785Z,836
2017-03-31T05:27:19.228Z,864
2017-03-31T05:27:59.628Z,896
2017-03-31T05:28:40.026Z,932
2017-03-31T05:29:20.452Z,964
2017-03-31T05:30:00.896Z,992
2017-03-31T05:30:41.322Z,1020
2017-03-31T05:31:21.679Z,1048
2017-03-31T05:32:02.147Z,1072
2017-03-31T05:32:42.566Z,1096
2017-03-31T05:33:23.083Z,1120
2017-03-31T05:34:03.545Z,1144
2017-03-31T05:34:43.900Z,1164
2017-03-31T05:35:24.835Z,1184
2017-03-31T05:36:05.163Z,1196
2017-03-31T05:36:45.562Z,1204
2017-03-31T05:37:26.087Z,1216
2017-03-31T05:38:06.589Z,1224
2017-03-31T05:38:47.251Z,1232
2017-03-31T05:39:27.719Z,1248
2017-03-31T05:40:09.900Z,1268
2017-03-31T05:40:50.268Z,1288
2017-03-31T05:41:30.904Z,1308
2017-03-31T05:42:11.530Z,1324
2017-03-31T05:42:52.074Z,1344
2017-03-31T05:43:32.763Z,1368
2017-03-31T05:44:13.154Z,1388
2017-03-31T05:44:53.608Z,1404
2017-03-31T05:45:34.008Z,1416
2017-03-31T05:46:14.491Z,1424
2017-03-31T05:46:55.173Z,1440
2017-03-31T05:47:35.487Z,1456
2017-03-31T05:48:15.959Z,1480
2017-03-31T05:48:56.323Z,1512
2017-03-31T05:49:36.770Z,1552
2017-03-31T05:50:17.367Z,1592
2017-03-31T05:50:58.293Z,1632
2017-03-31T05:51:38.804Z,1672
2017-03-31T05:52:19.198Z,1720
2017-03-31T05:52:59.763Z,1764
2017-03-31T05:53:40.122Z,1824
2017-03-31T05:54:20.701Z,1884
2017-03-31T05:55:01.088Z,1960
2017-03-31T05:55:41.452Z,2048
2017-03-31T05:56:22.036Z,2124
2017-03-31T05:57:02.967Z,2176
2017-03-31T05:57:43.367Z,2180
2017-03-31T05:58:24.340Z,2192
2017-03-31T05:59:04.415Z,2228
2017-03-31T05:59:45.054Z,2272
2017-03-31T06:00:25.981Z,2300
2017-03-31T06:01:06.571Z,2324
2017-03-31T06:01:47.145Z,2364
2017-03-31T06:02:27.805Z,2392
2017-03-31T06:03:08.689Z,2416
2017-03-31T06:03:49.969Z,2460
2017-03-31T06:04:32.256Z,2520
2017-03-31T06:05:13.123Z,2596
2017-03-31T06:05:53.540Z,2712
2017-03-31T06:06:34.145Z,2888
2017-03-31T06:07:14.575Z,3084
2017-03-31T06:07:55.067Z,3240
2017-03-31T06:08:35.581Z,3436
2017-03-31T06:09:15.986Z,3708
2017-03-31T06:09:56.442Z,3952
2017-03-31T06:10:36.830Z,4100
2017-03-31T06:11:17.429Z,4216
2017-03-31T06:11:57.811Z,4276
2017-03-31T06:12:38.114Z,4324
2017-03-31T06:13:18.687Z,4368
2017-03-31T06:13:58.969Z,4412
2017-03-31T06:14:39.396Z,4464
2017-03-31T06:15:19.775Z,4512
2017-03-31T06:16:00.378Z,4548
2017-03-31T06:16:41.084Z,4600
2017-03-31T06:17:21.597Z,4636
2017-03-31T06:18:01.935Z,4664
2017-03-31T06:18:44.104Z,4648
2017-03-31T06:19:24.600Z,4684
2017-03-31T06:20:05.039Z,4824
2017-03-31T06:20:45.543Z,4860
2017-03-31T06:21:25.923Z,4868
2017-03-31T06:22:06.557Z,4972
2017-03-31T06:22:47.016Z,5064
2017-03-31T06:23:27.520Z,5112
2017-03-31T06:24:07.871Z,5120
2017-03-31T06:24:48.508Z,5072
2017-03-31T06:25:28.889Z,5228
2017-03-31T06:26:09.340Z,5300
2017-03-31T06:26:49.914Z,5344
2017-03-31T06:27:30.280Z,5348
2017-03-31T06:28:10.854Z,5412
2017-03-31T06:28:51.495Z,5472
2017-03-31T06:29:31.918Z,5516
2017-03-31T06:30:12.297Z,5564
2017-03-31T06:30:52.995Z,5612
2017-03-31T06:31:33.379Z,5556
2017-03-31T06:32:13.798Z,5704
2017-03-31T06:32:54.215Z,5672
2017-03-31T06:33:34.631Z,5704
2017-03-31T06:34:15.189Z,5768
2017-03-31T06:34:55.535Z,5792
2017-03-31T06:35:35.977Z,5840
2017-03-31T06:36:16.402Z,5880
2017-03-31T06:36:56.772Z,5876
2017-03-31T06:37:37.216Z,6048
2017-03-31T06:38:17.632Z,6096
2017-03-31T06:38:58.032Z,6144
2017-03-31T06:39:38.452Z,6192
2017-03-31T06:40:18.859Z,6216
2017-03-31T06:40:59.257Z,6192
2017-03-31T06:41:39.668Z,6232
2017-03-31T06:42:20.109Z,6280
2017-03-31T06:43:00.492Z,6184
2017-03-31T06:43:40.905Z,6220
2017-03-31T06:44:21.344Z,6364
2017-03-31T06:45:01.743Z,6440
2017-03-31T06:45:42.158Z,6484
2017-03-31T06:46:22.585Z,6496
2017-03-31T06:47:02.969Z,6556
2017-03-31T06:47:43.411Z,6608
2017-03-31T06:48:23.808Z,6636
2017-03-31T06:49:04.229Z,6664
2017-03-31T06:49:44.605Z,6700
2017-03-31T06:50:25.017Z,6728
2017-03-31T06:51:05.463Z,6756
2017-03-31T06:51:45.914Z,6788
2017-03-31T06:52:26.321Z,6820
2017-03-31T06:53:06.790Z,6828
2017-03-31T06:53:47.231Z,6836
2017-03-31T06:54:28.278Z,6848
2017-03-31T06:55:08.755Z,6840
2017-03-31T06:55:49.158Z,6832
2017-03-31T06:56:29.553Z,6848
2017-03-31T06:57:09.936Z,6840
2017-03-31T06:57:50.393Z,6864
2017-03-31T06:58:30.802Z,6956
2017-03-31T06:59:11.200Z,7024
2017-03-31T06:59:51.630Z,7072
2017-03-31T07:00:31.998Z,7100
2017-03-31T07:01:12.412Z,7092
2017-03-31T07:01:52.851Z,7052
2017-03-31T07:02:33.269Z,7124
2017-03-31T07:03:14.599Z,7108
2017-03-31T07:03:55.065Z,7136
2017-03-31T07:04:35.483Z,7260
2017-03-31T07:05:15.906Z,7320
2017-03-31T07:05:56.276Z,7320
2017-03-31T07:06:36.700Z,7496
2017-03-31T07:07:17.170Z,7540
2017-03-31T07:07:57.570Z,7592
2017-03-31T07:08:38.007Z,7636
2017-03-31T07:09:18.448Z,7668
2017-03-31T07:09:58.844Z,7684
2017-03-31T07:10:39.271Z,7704
2017-03-31T07:11:19.672Z,7696
2017-03-31T07:12:00.027Z,7764
2017-03-31T07:12:40.435Z,7832
2017-03-31T07:13:20.907Z,7836
2017-03-31T07:14:01.307Z,7880
2017-03-31T07:14:41.753Z,7972
2017-03-31T07:15:22.143Z,8080
2017-03-31T07:16:02.539Z,8136
2017-03-31T07:16:42.967Z,8188
2017-03-31T07:17:23.408Z,8220
2017-03-31T07:18:03.769Z,8264
2017-03-31T07:18:44.229Z,8296
2017-03-31T07:19:24.694Z,8276
2017-03-31T07:20:05.074Z,8312
2017-03-31T07:20:46.150Z,8320
2017-03-31T07:21:27.063Z,8344
2017-03-31T07:22:07.469Z,8384
2017-03-31T07:22:47.964Z,8408
2017-03-31T07:23:28.361Z,8440
2017-03-31T07:24:08.758Z,8432
2017-03-31T07:24:49.205Z,8468
2017-03-31T07:25:29.640Z,8476
2017-03-31T07:26:10.063Z,8492
2017-03-31T07:26:50.461Z,8508
2017-03-31T07:27:30.895Z,8520
2017-03-31T07:28:11.287Z,8524
2017-03-31T07:28:51.681Z,8568
2017-03-31T07:29:32.100Z,8604
2017-03-31T07:30:13.310Z,8592
2017-03-31T07:30:53.741Z,8616
2017-03-31T07:33:27.197Z,8584
2017-03-31T07:34:08.738Z,8740
2017-03-31T07:34:49.168Z,8728
2017-03-31T07:35:29.601Z,8772
2017-03-31T07:36:10.030Z,8740
2017-03-31T07:36:50.466Z,8840
2017-03-31T07:37:30.858Z,8912
2017-03-31T07:38:11.273Z,9020
2017-03-31T07:38:51.676Z,9044
2017-03-31T07:39:32.091Z,9068
2017-03-31T07:40:13.352Z,9136
2017-03-31T07:40:53.768Z,9172
2017-03-31T07:41:34.190Z,9188
2017-03-31T07:42:14.600Z,9232
2017-03-31T07:42:55.017Z,9296
2017-03-31T07:43:36.029Z,9368
2017-03-31T07:44:16.408Z,9452
2017-03-31T07:44:56.827Z,9520
2017-03-31T07:45:37.250Z,9572
2017-03-31T07:46:17.650Z,9624
2017-03-31T07:46:58.071Z,9600
2017-03-31T07:47:38.525Z,9572
2017-03-31T07:48:18.998Z,9616
2017-03-31T07:48:59.364Z,9640
2017-03-31T07:49:39.810Z,9712
2017-03-31T07:50:20.192Z,9844
2017-03-31T07:51:00.647Z,9936
2017-03-31T07:51:42.782Z,9940
2017-03-31T07:52:23.224Z,10040
2017-03-31T07:53:03.616Z,10316
2017-03-31T07:53:44.727Z,10672
2017-03-31T07:54:25.898Z,11176
2017-03-31T07:55:07.242Z,11892
2017-03-31T07:55:48.536Z,12668
2017-03-31T07:56:29.272Z,13640
2017-03-31T07:57:09.669Z,15080
2017-03-31T07:57:51.085Z,17184
2017-03-31T07:58:31.747Z,26752
2017-03-31T08:00:46.835Z,67392
2017-03-31T08:01:26.948Z,62176
2017-03-31T08:02:09.383Z,71616
2017-03-31T08:02:50.229Z,67968
2017-03-31T08:03:30.673Z,66912
2017-03-31T08:04:11.039Z,70912
2017-03-31T08:04:52.272Z,72864
2017-03-31T08:05:33.012Z,74176
2017-03-31T08:06:16.776Z,72416
2017-03-31T08:06:57.181Z,68512
2017-03-31T08:07:37.546Z,68416
2017-03-31T08:08:19.004Z,67104
2017-03-31T08:08:59.358Z,69856
2017-03-31T08:09:40.361Z,73408
2017-03-31T08:10:21.784Z,74976
2017-03-31T08:11:02.282Z,79136
2017-03-31T08:11:43.534Z,80704
2017-03-31T08:12:23.970Z,78400
2017-03-31T08:13:04.442Z,75264
2017-03-31T08:13:44.840Z,73216
2017-03-31T08:14:25.924Z,75360
2017-03-31T08:15:06.377Z,74336
2017-03-31T08:15:46.795Z,76224
2017-03-31T08:16:27.272Z,70784
2017-03-31T08:17:07.675Z,49952
2017-03-31T08:17:49.018Z,48832
2017-03-31T08:18:30.046Z,60864
2017-03-31T08:19:10.455Z,63680
2017-03-31T08:19:50.885Z,68608
2017-03-31T08:20:40.198Z,74720
2017-03-31T08:21:20.637Z,78272
2017-03-31T08:22:01.712Z,81984
2017-03-31T08:22:43.825Z,80256
2017-03-31T08:23:24.321Z,73568
2017-03-31T08:24:05.579Z,73632
2017-03-31T08:24:45.956Z,77664
2017-03-31T08:25:26.402Z,80448
2017-03-31T08:26:08.288Z,75584
2017-03-31T08:26:48.735Z,75584
2017-03-31T08:27:29.188Z,77696
2017-03-31T08:28:09.639Z,76576
2017-03-31T08:28:50.039Z,78976
2017-03-31T08:29:30.441Z,77696
2017-03-31T08:30:11.505Z,79296
2017-03-31T08:30:51.930Z,80064
2017-03-31T08:31:33.135Z,81280
2017-03-31T08:32:14.066Z,79968
2017-03-31T08:32:54.454Z,78336
2017-03-31T08:33:36.282Z,78112
2017-03-31T08:34:16.792Z,79296
2017-03-31T08:34:57.852Z,77760
2017-03-31T08:35:38.313Z,77728
2017-03-31T08:36:18.820Z,78560
2017-03-31T08:36:59.203Z,78400
2017-03-31T08:37:39.644Z,79488
2017-03-31T08:38:21.698Z,81280
2017-03-31T08:40:20.664Z,76320
2017-03-31T08:41:02.322Z,80896
2017-03-31T08:41:44.632Z,82912
2017-03-31T08:42:26.413Z,83648
2017-03-31T08:43:06.902Z,83520
2017-03-31T08:43:48.243Z,82976
2017-03-31T08:44:28.666Z,85184
2017-03-31T08:45:13.433Z,87328
2017-03-31T08:45:53.862Z,82752
2017-03-31T08:46:34.945Z,83520
2017-03-31T08:49:03.008Z,86624
2017-03-31T08:49:43.966Z,79264
2017-03-31T08:50:24.361Z,79232
2017-03-31T08:51:06.318Z,79712
2017-03-31T08:51:46.756Z,84704
2017-03-31T08:52:27.215Z,83968
2017-03-31T08:54:46.238Z,86624
2017-03-31T08:55:28.033Z,85248
2017-03-31T08:56:11.033Z,83680
2017-03-31T08:56:52.107Z,83104
2017-03-31T08:57:32.459Z,84416
2017-03-31T08:58:12.860Z,82272
2017-03-31T08:58:53.892Z,84512
2017-03-31T08:59:36.011Z,85856
2017-03-31T09:00:16.445Z,90496
2017-03-31T09:00:56.901Z,94944
2017-03-31T09:03:09.838Z,95776
2017-03-31T09:03:50.819Z,93216
2017-03-31T09:04:32.035Z,87552
2017-03-31T09:05:13.261Z,90752
2017-03-31T09:05:53.685Z,87072
2017-03-31T09:06:34.102Z,89984
2017-03-31T09:07:15.232Z,89152
2017-03-31T09:07:55.621Z,89696
2017-03-31T09:08:36.089Z,83424
2017-03-31T09:09:17.553Z,85600
2017-03-31T09:09:57.973Z,81600
2017-03-31T09:10:39.156Z,82784
2017-03-31T09:11:22.204Z,83200
2017-03-31T09:12:02.639Z,79232
2017-03-31T09:12:44.650Z,82240
2017-03-31T09:13:25.919Z,92160
2017-03-31T09:14:08.822Z,95616
2017-03-31T09:14:49.243Z,90720
2017-03-31T09:15:30.496Z,96544
2017-03-31T09:16:10.968Z,99936
2017-03-31T09:16:51.411Z,101984
2017-03-31T09:17:33.206Z,99648
2017-03-31T09:18:14.670Z,98240
2017-03-31T09:18:55.982Z,96096
2017-03-31T09:19:36.449Z,94656
2017-03-31T09:21:54.578Z,96704
2017-03-31T09:22:35.908Z,97152
2017-03-31T09:23:17.324Z,98656
2017-03-31T09:23:57.731Z,101504
2017-03-31T09:24:38.166Z,101504
2017-03-31T09:26:36.433Z,102112
2017-03-31T09:27:16.873Z,105952
2017-03-31T09:27:57.344Z,103104
2017-03-31T09:28:38.693Z,83488
2017-03-31T09:29:19.108Z,99456
2017-03-31T09:30:02.895Z,98752
2017-03-31T09:30:43.323Z,99840
2017-03-31T09:31:23.728Z,99840
2017-03-31T09:32:05.238Z,88448
2017-03-31T09:32:46.396Z,97632
2017-03-31T09:33:26.795Z,97536
2017-03-31T09:34:07.212Z,92512
2017-03-31T09:36:05.437Z,89696
2017-03-31T09:36:46.842Z,91840
2017-03-31T09:37:27.915Z,94656
2017-03-31T09:38:08.365Z,90688
2017-03-31T09:38:48.815Z,86400
2017-03-31T09:39:29.251Z,87104
2017-03-31T09:40:09.698Z,82528
2017-03-31T09:40:50.099Z,75264
2017-03-31T09:41:30.531Z,76544
2017-03-31T09:42:13.347Z,73824
2017-03-31T09:42:53.864Z,69344
2017-03-31T09:43:34.998Z,76480
2017-03-31T09:44:15.590Z,86528
2017-03-31T09:44:56.057Z,102880
2017-03-31T09:45:36.661Z,119232
2017-03-31T09:46:17.110Z,126496
2017-03-31T09:46:58.438Z,119360
2017-03-31T09:47:38.859Z,100832
2017-03-31T09:48:19.424Z,94272
2017-03-31T09:48:59.969Z,99616
2017-03-31T09:49:40.402Z,106912
2017-03-31T09:50:21.037Z,105088